Orlando, FL

4:41 PM EDT on October 24, 2014 (GMT -0400)
Orlando International | Change Station
CLOSE
Current Station
Airport
Location: Orlando International,
Elevation: 105 ft
Nearby Weather Stations

Elev 105 ft 28.43 °N, 81.31 °W | Updated 48 minutes ago

Mostly Cloudy
Mostly Cloudy
80 °F
Feels Like 80 °F
N
16
Wind Variable Wind from ENE

Today
High -- | Low -- °F
--% Chance of Precip.
Yesterday
High -- | Low -- °F
Precip. -- in
7:31 AM 6:46 PM
New Moon, 1% visible
Pressure 29.92 in
Visibility 10.0 miles
Clouds Scattered Clouds 5000 ft
Heat Index 80 °F
Dew Point 57 °F
Humidity 45%
Rainfall 0.00 in
Snow Depth Not available.
UV 4 out of 12
Pollen 5.70 out of 12
Ozone Good
PM2.5 Good
Flu Activity Local Activity
METAR KMCO 241953Z 06014KT 10SM SCT050 27/14 A2992 RMK AO2 SLP130 T02670139 $

More Conditions Fewer Conditions

Pressure 29.92 in
Visibility 10.0 miles
Clouds Scattered Clouds 5000 ft
Heat Index 80 °F
Dew Point 57 °F
Humidity 45%
Rainfall 0.00 in
Snow Depth Not available.
UV 4 out of 12
Pollen 5.70 out of 12
Ozone Good
PM2.5 Good
Flu Activity Local Activity
METAR KMCO 241953Z 06014KT 10SM SCT050 27/14 A2992 RMK AO2 SLP130 T02670139 $

More Conditions Fewer Conditions

10-Day Weather Forecast

Almanac

Astronomy

Oct. 24, 2014 Rise Set
Actual Time 7:31 AM EDT 6:46 PM EDT
Civil Twilight 7:07 AM EDT 7:10 PM EDT
Nautical Twilight 6:39 AM EDT 7:38 PM EDT
Astronomical Twilight 6:12 AM EDT 8:05 PM EDT
Moon 8:06 AM EDT 7:29 PM EDT
Length of Visible Light 12h 03m
Length of Day
11h 15m
Tomorrow will be 1m 34s shorter.
New Moon, 1% of the Moon is Illuminated
Today
New Moon
Oct 30
First Quarter
Nov 6
Full
Nov 14
Last Quarter
Nov 22
New

Today's Extremes

State Highs State Lows

Community

WunderPhotos

Upload Photos

1,764,654 photos uploaded!

Nearby

Air Quality

  Air Quality AQ Index Pollutant
Yesterday Good
OZONE
Yesterday Good
PM2.5
Current Good
OZONE
Current Good
PM2.5
Friday Good
OZONE
Saturday Good
OZONE

Snow Depth

Station Depth Elevation
No new snow has been reported.

Earthquake Activity

City Distance Mag. Time & Date
No recent earthquake activity has been reported nearby.
Minimum magnitude displayed is 2.5.

Coastal Water Temperatures

Place Temperature
No Stations Reporting

Nearby Weather Stations